KGGI

Grinnell Regional Airport

Grinnell, Iowa, USA
METAR KGGI 212335Z AUTO 05009KT 10SM OVC008 20/17 A2976 RMK AO2 T01950174
Observed Flight Rules
Jun-21 @ 23:35 UTC (24 minutes ago) Instrument Flight Rules
Wind Visibility Clouds
50° at 9 knots 10 miles
  • Overcast at 800' AGL
Temperatures Readings
Current 20°C / 68°F
Dewpoint 17°C / 63°F
Humidity 83%
Altimeter 29.76" Hg
Pressure 1008 hPa
Elevation 307
METAR KGGI 212335Z AUTO 05009KT 10SM OVC008 20/17 A2976 RMK AO2 T01950174
Observed Flight Rules
Jun-21 @ 23:35 UTC
(24 minutes ago)
IFR
Wind Visibility
50° at 9 knots 10 miles
Clouds
  • Overcast at 800' AGL
Temperature Dewpoint
20°C / 68°F 17°C / 63°F
Humidity Altimeter Pressure
83% 29.76" Hg 1008 hPa